Terminal Aerodrome Forecast
Issued by NWS Cleveland, OH

Home | Current Version | Previous Version | Graphics & Text | Print | Product List | Glossary Off
Versions: 1 2 3 4 5 6 7 8 9 10 11 12 13 14

000
FTUS41 KCLE 040300 AAA
TAFERI
TAF AMD
KERI 040300Z 0403/0424 16004KT 5SM BR BKN120
      TEMPO 0410/0413 2SM BR
     FM041500 09006KT P6SM SCT120 BKN250
     FM041800 04010KT P6SM SCT250=

USA.gov is the U.S. government's official web portal to all federal, state and local government web resources and services.